createdAt,value
2024-01-24T00:02:09.339Z,4.30
2024-01-24T00:04:36.679Z,3.72
2024-01-24T00:07:04.118Z,3.75
2024-01-24T00:09:32.832Z,4.05
2024-01-24T00:12:00.458Z,3.72
2024-01-24T00:14:27.978Z,3.75
2024-01-24T00:16:55.384Z,4.00
2024-01-24T00:19:22.773Z,4.43
2024-01-24T00:21:50.363Z,4.57
2024-01-24T00:24:17.838Z,4.75
2024-01-24T00:26:45.270Z,5.38
2024-01-24T00:29:12.634Z,5.03
2024-01-24T00:31:40.039Z,4.93
2024-01-24T00:34:07.610Z,5.80
2024-01-24T00:36:35.192Z,6.05
2024-01-24T00:39:02.505Z,4.90
2024-01-24T00:41:29.897Z,4.72
2024-01-24T00:43:57.148Z,4.22
2024-01-24T00:46:25.745Z,4.47
2024-01-24T00:48:53.153Z,3.60
2024-01-24T00:51:20.437Z,3.72
2024-01-24T00:53:54.406Z,3.72
2024-01-24T00:56:22.373Z,4.15
2024-01-24T00:58:49.622Z,3.85
2024-01-24T01:01:17.465Z,4.32
2024-01-24T01:03:44.853Z,4.15
2024-01-24T01:06:12.312Z,3.58
2024-01-24T01:08:39.653Z,3.72
2024-01-24T01:11:07.449Z,3.50
2024-01-24T01:13:35.667Z,3.78
2024-01-24T01:16:03.122Z,4.10
2024-01-24T01:18:30.530Z,3.60
2024-01-24T01:20:59.075Z,3.55
2024-01-24T01:23:27.059Z,3.70
2024-01-24T01:25:54.644Z,3.55
2024-01-24T01:28:21.933Z,3.72
2024-01-24T01:30:49.349Z,3.65
2024-01-24T01:33:16.828Z,3.78
2024-01-24T01:35:44.211Z,3.30
2024-01-24T01:38:11.568Z,3.03
2024-01-24T01:40:38.872Z,3.40
2024-01-24T01:43:16.418Z,3.47
2024-01-24T01:45:44.312Z,3.15
2024-01-24T01:48:12.830Z,2.97
2024-01-24T01:50:41.188Z,3.53
2024-01-24T01:53:08.731Z,2.92
2024-01-24T01:55:38.270Z,3.00
2024-01-24T01:58:05.967Z,3.15
2024-01-24T02:00:34.556Z,3.05
2024-01-24T02:03:02.080Z,3.05
2024-01-24T02:05:29.867Z,3.28
2024-01-24T02:07:57.323Z,3.17
2024-01-24T02:10:24.975Z,3.10
2024-01-24T02:12:52.557Z,3.10
2024-01-24T02:15:20.457Z,2.88
2024-01-24T02:17:47.747Z,2.88
2024-01-24T02:20:17.097Z,2.97
2024-01-24T02:22:45.919Z,3.00
2024-01-24T02:25:14.203Z,2.80
2024-01-24T02:27:42.185Z,3.03
2024-01-24T02:30:10.802Z,2.40
2024-01-24T02:32:40.344Z,2.60
2024-01-24T02:35:08.261Z,2.10
2024-01-24T02:37:35.686Z,1.67
2024-01-24T02:40:03.147Z,1.50
2024-01-24T02:42:30.563Z,1.40
2024-01-24T02:44:57.840Z,1.50
2024-01-24T02:47:25.238Z,1.40
2024-01-24T02:49:52.493Z,1.27
2024-01-24T02:52:19.845Z,1.25
2024-01-24T02:54:47.176Z,1.40
2024-01-24T02:57:14.536Z,1.35
2024-01-24T02:59:41.903Z,1.30
2024-01-24T03:02:09.240Z,1.25
2024-01-24T03:04:36.728Z,1.30
2024-01-24T03:07:04.502Z,1.10
2024-01-24T03:09:31.959Z,1.25
2024-01-24T03:11:59.165Z,1.52
2024-01-24T03:14:26.558Z,1.35
2024-01-24T03:16:53.829Z,1.25
2024-01-24T03:19:21.423Z,1.63
2024-01-24T03:21:49.265Z,1.50
2024-01-24T03:24:16.765Z,1.42
2024-01-24T03:26:44.288Z,1.30
2024-01-24T03:29:11.741Z,1.35
2024-01-24T03:31:43.639Z,1.80
2024-01-24T03:34:14.392Z,1.60
2024-01-24T03:36:42.081Z,1.75
2024-01-24T03:39:12.517Z,1.60
2024-01-24T03:41:40.037Z,1.20
2024-01-24T03:44:07.558Z,1.27
2024-01-24T03:46:35.411Z,1.50
2024-01-24T03:49:03.986Z,1.30
2024-01-24T03:51:32.139Z,1.40
2024-01-24T03:53:59.826Z,1.20
2024-01-24T03:56:27.265Z,1.48
2024-01-24T03:58:55.177Z,1.20
2024-01-24T04:01:22.724Z,1.45
2024-01-24T04:03:51.172Z,1.33
2024-01-24T04:06:18.659Z,1.33
2024-01-24T04:08:46.408Z,1.33
2024-01-24T04:11:13.879Z,1.60
2024-01-24T04:13:43.941Z,1.48
2024-01-24T04:16:11.559Z,1.20
2024-01-24T04:18:38.937Z,1.27
2024-01-24T04:21:06.358Z,1.52
2024-01-24T04:23:33.620Z,1.00
2024-01-24T04:26:03.929Z,1.20
2024-01-24T04:28:31.917Z,0.93
2024-01-24T04:30:59.426Z,1.45
2024-01-24T04:33:26.966Z,1.70
2024-01-24T04:35:54.583Z,1.67
2024-01-24T04:38:22.006Z,1.60
2024-01-24T04:40:49.418Z,1.50
2024-01-24T04:43:16.762Z,1.35
2024-01-24T04:45:44.097Z,1.70
2024-01-24T04:48:11.434Z,1.50
2024-01-24T04:50:39.120Z,1.92
2024-01-24T04:53:06.434Z,2.10
2024-01-24T04:55:34.265Z,3.20
2024-01-24T04:58:01.533Z,2.88
2024-01-24T05:00:29.019Z,2.40
2024-01-24T05:02:56.526Z,2.22
2024-01-24T05:05:23.862Z,2.58
2024-01-24T05:07:51.226Z,2.33
2024-01-24T05:10:18.566Z,2.70
2024-01-24T05:12:46.026Z,2.92
2024-01-24T05:15:13.945Z,3.08
2024-01-24T05:17:41.523Z,3.60
2024-01-24T05:20:10.136Z,3.50
2024-01-24T05:22:37.536Z,3.95
2024-01-24T05:25:05.582Z,5.18
2024-01-24T05:27:33.117Z,5.30
2024-01-24T05:30:09.013Z,6.35
2024-01-24T05:32:44.467Z,7.87
2024-01-24T05:35:12.261Z,5.28
2024-01-24T05:37:39.891Z,5.57
2024-01-24T05:40:09.358Z,5.00
2024-01-24T05:42:39.355Z,6.60
2024-01-24T05:45:07.353Z,7.28
2024-01-24T05:47:34.608Z,7.15
2024-01-24T05:50:02.111Z,5.90
2024-01-24T05:52:29.676Z,5.63
2024-01-24T05:54:57.038Z,4.45
2024-01-24T05:57:24.863Z,4.40
2024-01-24T05:59:52.213Z,6.22
2024-01-24T06:02:20.901Z,4.80
2024-01-24T06:04:48.636Z,4.20
2024-01-24T06:07:16.433Z,3.40
2024-01-24T06:09:43.870Z,3.65
2024-01-24T06:12:11.455Z,3.30
2024-01-24T06:14:39.713Z,3.30
2024-01-24T06:17:07.044Z,3.00
2024-01-24T06:19:34.413Z,3.70
2024-01-24T06:22:01.772Z,3.47
2024-01-24T06:24:29.952Z,3.20
2024-01-24T06:26:57.484Z,3.40
2024-01-24T06:30:15.136Z,3.72
2024-01-24T06:32:12.403Z,3.42
2024-01-24T06:34:39.973Z,3.92
2024-01-24T06:37:08.329Z,3.08
2024-01-24T06:39:35.598Z,3.85
2024-01-24T06:42:03.023Z,3.42
2024-01-24T06:44:30.360Z,2.95
2024-01-24T06:46:57.771Z,3.30
2024-01-24T06:49:25.256Z,3.25
2024-01-24T06:51:52.799Z,2.63
2024-01-24T06:54:21.324Z,2.45
2024-01-24T06:56:49.191Z,2.22
2024-01-24T06:59:16.841Z,2.08
2024-01-24T07:01:44.345Z,2.25
2024-01-24T07:04:12.209Z,1.80
2024-01-24T07:06:39.692Z,2.05
2024-01-24T07:09:07.252Z,1.85
2024-01-24T07:11:34.471Z,1.90
2024-01-24T07:14:01.783Z,2.50
2024-01-24T07:16:29.381Z,2.03
2024-01-24T07:18:56.771Z,2.50
2024-01-24T07:21:25.582Z,4.03
2024-01-24T07:23:52.898Z,3.55
2024-01-24T07:26:20.352Z,4.28
2024-01-24T07:28:47.559Z,4.63
2024-01-24T07:31:15.230Z,3.90
2024-01-24T07:33:42.778Z,3.95
2024-01-24T07:36:10.438Z,3.97
2024-01-24T07:38:38.813Z,4.55
2024-01-24T07:41:09.102Z,3.92
2024-01-24T07:43:36.449Z,3.58
2024-01-24T07:46:04.275Z,3.90
2024-01-24T07:48:34.813Z,3.15
2024-01-24T07:51:02.625Z,3.35
2024-01-24T07:53:30.079Z,3.25
2024-01-24T07:56:03.587Z,3.13
2024-01-24T07:58:42.112Z,2.90
2024-01-24T08:01:11.191Z,3.28
2024-01-24T08:03:39.232Z,5.13
2024-01-24T08:06:07.477Z,3.97
2024-01-24T08:08:34.819Z,2.72
2024-01-24T08:11:02.938Z,2.80
2024-01-24T08:13:33.038Z,2.50
2024-01-24T08:16:00.668Z,2.92
2024-01-24T08:18:28.170Z,3.13
2024-01-24T08:20:56.787Z,3.40
2024-01-24T08:23:31.723Z,2.80
2024-01-24T08:26:06.654Z,2.78
2024-01-24T08:28:33.946Z,3.20
2024-01-24T08:31:01.510Z,3.17
2024-01-24T08:33:28.927Z,3.22
2024-01-24T08:35:57.260Z,3.75
2024-01-24T08:38:25.381Z,3.88
2024-01-24T08:40:52.874Z,2.63
2024-01-24T08:43:20.180Z,2.70
2024-01-24T08:45:50.437Z,3.10
2024-01-24T08:48:23.214Z,3.10
2024-01-24T08:50:50.774Z,2.83
2024-01-24T08:53:18.014Z,2.20
2024-01-24T08:55:45.470Z,2.78
2024-01-24T08:58:15.082Z,2.70
2024-01-24T09:00:42.749Z,2.70
2024-01-24T09:03:10.243Z,2.40
2024-01-24T09:05:38.863Z,2.50
2024-01-24T09:08:06.448Z,2.38
2024-01-24T09:10:34.725Z,2.00
2024-01-24T09:13:02.109Z,2.25
2024-01-24T09:15:29.714Z,1.70
2024-01-24T09:17:57.292Z,1.88
2024-01-24T09:20:24.900Z,2.10
2024-01-24T09:22:52.260Z,2.40
2024-01-24T09:25:20.630Z,2.15
2024-01-24T09:27:48.276Z,1.98
2024-01-24T09:30:15.950Z,2.30
2024-01-24T09:32:43.561Z,2.53
2024-01-24T09:35:12.425Z,1.90
2024-01-24T09:37:40.205Z,2.10
2024-01-24T09:40:10.598Z,2.17
2024-01-24T09:42:43.435Z,2.25
2024-01-24T09:45:11.837Z,2.30
2024-01-24T09:47:41.312Z,2.20
2024-01-24T09:50:10.700Z,2.10
2024-01-24T09:52:38.603Z,2.03
2024-01-24T09:55:07.917Z,2.42
2024-01-24T09:57:35.318Z,2.20
2024-01-24T10:00:02.839Z,2.20
2024-01-24T10:02:32.093Z,1.90
2024-01-24T10:05:01.256Z,2.10
2024-01-24T10:07:30.005Z,2.03
2024-01-24T10:10:16.936Z,2.40
2024-01-24T10:12:45.112Z,2.40
2024-01-24T10:15:13.305Z,1.90
2024-01-24T10:17:48.015Z,1.75
2024-01-24T10:20:18.640Z,2.13
2024-01-24T10:22:47.781Z,1.80
2024-01-24T10:25:16.108Z,2.10
2024-01-24T10:27:44.303Z,1.83
2024-01-24T10:30:14.523Z,1.92
2024-01-24T10:32:49.789Z,1.80
2024-01-24T10:35:18.206Z,1.80
2024-01-24T10:37:45.852Z,1.98
2024-01-24T10:40:17.543Z,1.98
2024-01-24T10:42:46.428Z,2.05
2024-01-24T10:45:16.897Z,1.50
2024-01-24T10:47:45.889Z,1.98
2024-01-24T10:50:13.968Z,2.00
2024-01-24T10:52:44.092Z,1.85
2024-01-24T10:55:14.260Z,1.25
2024-01-24T10:57:48.299Z,1.08
2024-01-24T11:00:20.841Z,1.33
2024-01-24T11:02:48.336Z,7.32
2024-01-24T11:05:24.285Z,1.10
2024-01-24T11:08:05.329Z,0.90
2024-01-24T11:10:40.446Z,1.27
2024-01-24T11:13:08.588Z,1.10
2024-01-24T11:15:36.686Z,1.20
2024-01-24T11:18:27.072Z,1.30
2024-01-24T11:20:57.003Z,1.20
2024-01-24T11:23:47.993Z,1.40
2024-01-24T11:26:18.342Z,2.60
2024-01-24T11:28:47.072Z,1.05
2024-01-24T11:31:15.805Z,1.33
2024-01-24T11:34:06.712Z,1.45
2024-01-24T11:36:41.506Z,1.25
2024-01-24T11:39:39.977Z,1.65
2024-01-24T11:42:27.464Z,1.50
2024-01-24T11:44:55.183Z,1.67
2024-01-24T11:47:25.967Z,1.42
2024-01-24T11:49:53.867Z,0.73
2024-01-24T11:52:24.341Z,1.45
2024-01-24T11:54:55.188Z,0.90
2024-01-24T11:57:23.344Z,0.93
2024-01-24T11:59:50.701Z,0.90
2024-01-24T12:02:18.224Z,1.10
2024-01-24T12:04:45.700Z,1.20
2024-01-24T12:07:13.179Z,0.90
2024-01-24T12:09:41.963Z,0.90
2024-01-24T12:12:11.277Z,1.00
2024-01-24T12:14:39.377Z,1.02
2024-01-24T12:17:08.756Z,1.10
2024-01-24T12:19:38.486Z,1.33
2024-01-24T12:22:10.280Z,1.55
2024-01-24T12:24:44.155Z,1.80
2024-01-24T12:27:12.259Z,1.20
2024-01-24T12:29:39.907Z,1.35
2024-01-24T12:32:08.420Z,0.98
2024-01-24T12:34:36.154Z,0.80
2024-01-24T12:37:04.144Z,0.90
2024-01-24T12:39:36.323Z,0.90
2024-01-24T12:42:04.030Z,1.10
2024-01-24T12:44:31.647Z,1.35
2024-01-24T12:47:00.499Z,1.17
2024-01-24T12:49:28.645Z,1.42
2024-01-24T12:51:56.862Z,1.20
2024-01-24T12:54:26.068Z,0.98
2024-01-24T12:56:53.651Z,1.20
2024-01-24T12:59:21.023Z,0.82
2024-01-24T13:01:50.336Z,1.10
2024-01-24T13:04:18.623Z,1.30
2024-01-24T13:06:46.247Z,1.60
2024-01-24T13:09:15.030Z,1.15
2024-01-24T13:11:42.318Z,1.75
2024-01-24T13:14:09.868Z,1.33
2024-01-24T13:16:37.266Z,0.88
2024-01-24T13:19:04.641Z,1.35
2024-01-24T13:21:32.108Z,1.30
2024-01-24T13:24:03.110Z,1.40
2024-01-24T13:26:30.781Z,1.23
2024-01-24T13:28:58.225Z,1.55
2024-01-24T13:31:26.244Z,1.38
2024-01-24T13:33:55.763Z,1.20
2024-01-24T13:36:23.714Z,1.42
2024-01-24T13:38:51.227Z,1.17
2024-01-24T13:41:19.000Z,1.30
2024-01-24T13:43:46.284Z,1.23
2024-01-24T13:46:13.797Z,1.55
2024-01-24T13:48:41.311Z,1.45
2024-01-24T13:51:09.128Z,1.20
2024-01-24T13:53:36.547Z,1.33
2024-01-24T13:56:04.176Z,1.05
2024-01-24T13:58:31.718Z,1.10
2024-01-24T14:00:59.518Z,1.20
2024-01-24T14:03:27.173Z,1.38
2024-01-24T14:05:54.621Z,1.10
2024-01-24T14:08:22.431Z,1.30
2024-01-24T14:10:50.913Z,1.20
2024-01-24T14:13:18.539Z,1.30
2024-01-24T14:15:45.855Z,0.90
2024-01-24T14:18:13.402Z,1.70
2024-01-24T14:20:40.788Z,2.45
2024-01-24T14:23:10.052Z,1.00
2024-01-24T14:25:37.377Z,1.33
2024-01-24T14:28:05.300Z,1.10
2024-01-24T14:30:32.839Z,1.23
2024-01-24T14:33:02.441Z,1.38
2024-01-24T14:35:32.476Z,1.10
2024-01-24T14:38:00.413Z,1.05
2024-01-24T14:40:28.045Z,1.55
2024-01-24T14:42:55.604Z,1.10
2024-01-24T14:45:22.926Z,1.38
2024-01-24T14:47:50.470Z,1.40
2024-01-24T14:50:18.315Z,1.10
2024-01-24T14:52:45.767Z,1.60
2024-01-24T14:55:13.504Z,1.30
2024-01-24T14:57:41.194Z,1.30
2024-01-24T15:00:12.134Z,1.52
2024-01-24T15:02:40.033Z,1.15
2024-01-24T15:05:11.384Z,1.30
2024-01-24T15:07:39.314Z,1.23
2024-01-24T15:10:09.288Z,1.38
2024-01-24T15:12:37.808Z,1.50
2024-01-24T15:15:06.931Z,1.80
2024-01-24T15:17:34.882Z,3.03
2024-01-24T15:20:05.241Z,3.10
2024-01-24T15:22:34.629Z,2.97
2024-01-24T15:25:05.188Z,2.63
2024-01-24T15:27:33.651Z,1.85
2024-01-24T15:30:01.843Z,1.60
2024-01-24T15:32:32.244Z,1.73
2024-01-24T15:35:00.224Z,1.95
2024-01-24T15:37:28.034Z,1.30
2024-01-24T15:39:55.499Z,1.27
2024-01-24T15:42:24.173Z,1.33
2024-01-24T15:44:51.640Z,1.73
2024-01-24T15:47:19.900Z,1.30
2024-01-24T15:49:47.409Z,1.42
2024-01-24T15:52:17.755Z,1.48
2024-01-24T15:54:47.079Z,1.63
2024-01-24T15:57:14.472Z,1.80
2024-01-24T15:59:41.993Z,1.67
2024-01-24T16:02:09.414Z,1.42
2024-01-24T16:04:38.458Z,2.17
2024-01-24T16:07:06.731Z,1.80
2024-01-24T16:09:34.532Z,2.30
2024-01-24T16:12:02.631Z,2.38
2024-01-24T16:14:31.431Z,2.30
2024-01-24T16:16:58.939Z,1.95
2024-01-24T16:19:26.428Z,1.95
2024-01-24T16:21:54.768Z,1.98
2024-01-24T16:24:22.550Z,2.25
2024-01-24T16:26:50.062Z,2.30
2024-01-24T16:29:18.448Z,2.20
2024-01-24T16:31:45.862Z,2.35
2024-01-24T16:34:13.472Z,1.80
2024-01-24T16:36:41.254Z,2.00
2024-01-24T16:39:08.848Z,1.63
2024-01-24T16:41:36.220Z,2.53
2024-01-24T16:44:03.741Z,2.25
2024-01-24T16:46:31.032Z,1.83
2024-01-24T16:48:59.189Z,1.75
2024-01-24T16:51:26.957Z,2.10
2024-01-24T16:53:55.971Z,2.58
2024-01-24T16:56:25.304Z,1.92
2024-01-24T16:58:52.864Z,2.20
2024-01-24T17:01:20.333Z,2.15
2024-01-24T17:03:50.612Z,2.47
2024-01-24T17:06:18.464Z,2.15
2024-01-24T17:08:45.886Z,2.70
2024-01-24T17:11:15.365Z,4.25
2024-01-24T17:13:42.607Z,3.50
2024-01-24T17:16:09.880Z,4.00
2024-01-24T17:18:38.476Z,3.10
2024-01-24T17:21:07.713Z,2.20
2024-01-24T17:23:35.132Z,3.10
2024-01-24T17:26:02.560Z,2.78
2024-01-24T17:28:29.857Z,2.47
2024-01-24T17:30:57.328Z,2.50
2024-01-24T17:33:24.880Z,2.30
2024-01-24T17:35:52.381Z,2.40
2024-01-24T17:38:19.955Z,2.70
2024-01-24T17:40:47.333Z,2.40
2024-01-24T17:43:14.840Z,2.30
2024-01-24T17:45:42.224Z,2.38
2024-01-24T17:48:09.711Z,2.30
2024-01-24T17:50:37.639Z,2.03
2024-01-24T17:53:05.129Z,2.38
2024-01-24T17:55:32.687Z,2.88
2024-01-24T17:58:00.114Z,3.22
2024-01-24T18:00:27.720Z,4.05
2024-01-24T18:02:55.071Z,4.00
2024-01-24T18:05:22.702Z,5.53
2024-01-24T18:07:50.538Z,6.85
2024-01-24T18:10:18.476Z,6.05
2024-01-24T18:12:45.932Z,6.63
2024-01-24T18:15:13.344Z,5.03
2024-01-24T18:17:40.779Z,5.25
2024-01-24T18:20:08.923Z,5.82
2024-01-24T18:22:36.409Z,5.60
2024-01-24T18:25:04.149Z,5.82
2024-01-24T18:27:32.129Z,6.22
2024-01-24T18:29:59.448Z,6.68
2024-01-24T18:32:27.006Z,6.80
2024-01-24T18:34:54.307Z,5.95
2024-01-24T18:37:21.689Z,6.65
2024-01-24T18:39:49.691Z,5.40
2024-01-24T18:42:17.045Z,5.78
2024-01-24T18:44:44.427Z,5.10
2024-01-24T18:47:12.318Z,4.82
2024-01-24T18:49:40.630Z,4.97
2024-01-24T18:52:08.319Z,5.18
2024-01-24T18:54:35.701Z,6.40
2024-01-24T18:57:03.305Z,6.00
2024-01-24T18:59:31.314Z,6.30
2024-01-24T19:01:58.880Z,6.25
2024-01-24T19:04:26.568Z,6.32
2024-01-24T19:06:53.992Z,6.35
2024-01-24T19:09:21.380Z,6.68
2024-01-24T19:11:48.972Z,6.47
2024-01-24T19:14:19.051Z,6.55
2024-01-24T19:16:46.539Z,6.55
2024-01-24T19:19:15.384Z,6.32
2024-01-24T19:21:47.366Z,6.35
2024-01-24T19:24:14.857Z,6.38
2024-01-24T19:26:44.415Z,5.80
2024-01-24T19:29:12.386Z,5.68
2024-01-24T19:31:43.219Z,6.63
2024-01-24T19:34:10.793Z,6.65
2024-01-24T19:36:41.798Z,6.53
2024-01-24T19:39:10.413Z,6.72
2024-01-24T19:41:37.738Z,7.10
2024-01-24T19:44:05.296Z,8.23
2024-01-24T19:46:33.153Z,8.50
2024-01-24T19:49:01.503Z,10.13
2024-01-24T19:51:30.048Z,11.85
2024-01-24T19:53:59.065Z,13.00
2024-01-24T19:56:26.761Z,14.65
2024-01-24T19:58:54.117Z,14.10
2024-01-24T20:01:21.707Z,13.98
2024-01-24T20:03:49.354Z,12.57
2024-01-24T20:06:17.348Z,11.50
2024-01-24T20:08:45.255Z,10.00
2024-01-24T20:11:13.121Z,10.38
2024-01-24T20:13:40.375Z,10.05
2024-01-24T20:16:07.794Z,11.32
2024-01-24T20:18:35.826Z,9.77
2024-01-24T20:21:03.460Z,9.02
2024-01-24T20:23:32.545Z,9.18
2024-01-24T20:26:01.184Z,9.25
2024-01-24T20:28:28.544Z,9.43
2024-01-24T20:30:55.915Z,8.38
2024-01-24T20:33:23.456Z,8.95
2024-01-24T20:35:53.449Z,8.82
2024-01-24T20:38:23.912Z,9.45
2024-01-24T20:40:51.272Z,11.10
2024-01-24T20:43:18.660Z,8.63
2024-01-24T20:45:46.075Z,7.82
2024-01-24T20:48:16.106Z,8.13
2024-01-24T20:50:44.187Z,7.65
2024-01-24T20:53:14.229Z,7.18
2024-01-24T20:55:41.684Z,7.38
2024-01-24T20:58:10.060Z,7.05
2024-01-24T21:00:39.313Z,6.60
2024-01-24T21:03:08.096Z,7.70
2024-01-24T21:05:36.666Z,7.20
2024-01-24T21:08:05.550Z,7.00
2024-01-24T21:10:34.488Z,6.82
2024-01-24T21:13:04.042Z,7.18
2024-01-24T21:15:31.503Z,7.05
2024-01-24T21:17:58.944Z,7.13
2024-01-24T21:20:26.643Z,7.18
2024-01-24T21:22:54.253Z,8.02
2024-01-24T21:25:21.582Z,7.38
2024-01-24T21:27:49.139Z,8.00
2024-01-24T21:30:16.643Z,7.93
2024-01-24T21:32:44.193Z,8.43
2024-01-24T21:35:12.630Z,8.32
2024-01-24T21:37:40.050Z,7.22
2024-01-24T21:40:08.910Z,7.97
2024-01-24T21:42:36.519Z,8.27
2024-01-24T21:45:04.675Z,8.13
2024-01-24T21:47:32.246Z,8.68
2024-01-24T21:50:00.297Z,7.85
2024-01-24T21:52:27.899Z,7.45
2024-01-24T21:54:57.263Z,8.57
2024-01-24T21:57:25.918Z,7.75
2024-01-24T21:59:53.231Z,7.25
2024-01-24T22:02:20.785Z,7.30
2024-01-24T22:04:48.183Z,7.50
2024-01-24T22:07:15.736Z,7.88
2024-01-24T22:09:43.194Z,7.93
2024-01-24T22:12:14.113Z,8.13
2024-01-24T22:14:41.506Z,7.68
2024-01-24T22:17:08.728Z,7.32
2024-01-24T22:19:36.346Z,8.18
2024-01-24T22:22:03.846Z,7.93
2024-01-24T22:24:31.380Z,7.45
2024-01-24T22:26:58.794Z,7.53
2024-01-24T22:29:26.258Z,7.40
2024-01-24T22:31:53.560Z,7.35
2024-01-24T22:34:22.207Z,6.50
2024-01-24T22:36:49.787Z,6.35
2024-01-24T22:39:17.193Z,6.68
2024-01-24T22:41:44.663Z,6.90
2024-01-24T22:44:12.891Z,6.65
2024-01-24T22:46:41.493Z,5.95
2024-01-24T22:49:09.786Z,6.40
2024-01-24T22:51:38.185Z,5.60
2024-01-24T22:54:05.656Z,5.10
2024-01-24T22:56:32.927Z,5.10
2024-01-24T22:59:00.378Z,5.18
2024-01-24T23:01:29.215Z,4.68
2024-01-24T23:03:56.836Z,5.45
2024-01-24T23:06:24.433Z,4.80
2024-01-24T23:08:52.039Z,4.50
2024-01-24T23:11:19.658Z,4.45
2024-01-24T23:13:47.016Z,4.45
2024-01-24T23:16:14.816Z,4.70
2024-01-24T23:18:42.135Z,4.22
2024-01-24T23:21:09.651Z,3.88
2024-01-24T23:23:36.897Z,4.18
2024-01-24T23:26:04.407Z,4.13
2024-01-24T23:28:31.872Z,3.90
2024-01-24T23:30:59.299Z,4.25
2024-01-24T23:33:31.413Z,4.10
2024-01-24T23:35:59.123Z,3.97
2024-01-24T23:38:26.367Z,4.07
2024-01-24T23:40:53.755Z,4.13
2024-01-24T23:43:21.053Z,4.78
2024-01-24T23:45:48.595Z,3.90
2024-01-24T23:48:16.047Z,4.38
2024-01-24T23:50:44.227Z,4.20
2024-01-24T23:53:11.680Z,4.18
2024-01-24T23:55:39.347Z,4.82
2024-01-24T23:58:06.879Z,4.07
